sensor_id;sensor_type;location;lat;lon;timestamp;P1;durP1;ratioP1;P2;durP2;ratioP2
73863;SDS011;62200;52.062;5.292;2022-08-03T00:01:03;4.82;;;1.15;;
73863;SDS011;62200;52.062;5.292;2022-08-03T00:03:28;6.25;;;1.50;;
73863;SDS011;62200;52.062;5.292;2022-08-03T00:05:54;4.38;;;0.98;;
73863;SDS011;62200;52.062;5.292;2022-08-03T00:08:19;3.63;;;1.25;;
73863;SDS011;62200;52.062;5.292;2022-08-03T00:10:45;6.32;;;1.50;;
73863;SDS011;62200;52.062;5.292;2022-08-03T00:13:11;4.93;;;1.73;;
73863;SDS011;62200;52.062;5.292;2022-08-03T00:15:38;4.93;;;1.50;;
73863;SDS011;62200;52.062;5.292;2022-08-03T00:18:04;7.30;;;1.27;;
73863;SDS011;62200;52.062;5.292;2022-08-03T00:20:29;3.25;;;1.10;;
73863;SDS011;62200;52.062;5.292;2022-08-03T00:22:55;7.55;;;1.73;;
73863;SDS011;62200;52.062;5.292;2022-08-03T00:25:20;3.38;;;1.10;;
73863;SDS011;62200;52.062;5.292;2022-08-03T00:27:46;4.50;;;1.33;;
73863;SDS011;62200;52.062;5.292;2022-08-03T00:30:11;3.67;;;1.25;;
73863;SDS011;62200;52.062;5.292;2022-08-03T00:32:36;7.72;;;1.50;;
73863;SDS011;62200;52.062;5.292;2022-08-03T00:35:02;2.55;;;1.08;;
73863;SDS011;62200;52.062;5.292;2022-08-03T00:37:28;6.53;;;1.40;;
73863;SDS011;62200;52.062;5.292;2022-08-03T00:39:53;5.53;;;1.50;;
73863;SDS011;62200;52.062;5.292;2022-08-03T00:42:18;4.60;;;1.23;;
73863;SDS011;62200;52.062;5.292;2022-08-03T00:44:44;3.58;;;1.23;;
73863;SDS011;62200;52.062;5.292;2022-08-03T00:47:10;5.97;;;1.30;;
73863;SDS011;62200;52.062;5.292;2022-08-03T00:49:36;4.93;;;1.15;;
73863;SDS011;62200;52.062;5.292;2022-08-03T00:52:03;3.35;;;1.10;;
73863;SDS011;62200;52.062;5.292;2022-08-03T00:54:29;4.35;;;1.45;;
73863;SDS011;62200;52.062;5.292;2022-08-03T00:56:54;6.53;;;1.30;;
73863;SDS011;62200;52.062;5.292;2022-08-03T00:59:20;5.20;;;1.50;;
73863;SDS011;62200;52.062;5.292;2022-08-03T01:01:45;4.95;;;1.58;;
73863;SDS011;62200;52.062;5.292;2022-08-03T01:04:11;4.72;;;1.40;;
73863;SDS011;62200;52.062;5.292;2022-08-03T01:11:59;4.03;;;1.10;;
73863;SDS011;62200;52.062;5.292;2022-08-03T01:14:40;4.68;;;1.65;;
73863;SDS011;62200;52.062;5.292;2022-08-03T01:17:19;4.07;;;1.50;;
73863;SDS011;62200;52.062;5.292;2022-08-03T01:20:12;4.63;;;1.23;;
73863;SDS011;62200;52.062;5.292;2022-08-03T01:30:46;10.00;;;1.77;;
73863;SDS011;62200;52.062;5.292;2022-08-03T01:33:14;5.90;;;1.40;;
73863;SDS011;62200;52.062;5.292;2022-08-03T01:38:12;3.00;;;1.38;;
73863;SDS011;62200;52.062;5.292;2022-08-03T01:43:09;7.70;;;2.00;;
73863;SDS011;62200;52.062;5.292;2022-08-03T01:45:43;3.92;;;1.63;;
73863;SDS011;62200;52.062;5.292;2022-08-03T01:48:10;4.88;;;1.40;;
73863;SDS011;62200;52.062;5.292;2022-08-03T01:50:39;4.28;;;1.25;;
73863;SDS011;62200;52.062;5.292;2022-08-03T01:53:06;4.43;;;1.27;;
73863;SDS011;62200;52.062;5.292;2022-08-03T01:55:33;7.25;;;1.70;;
73863;SDS011;62200;52.062;5.292;2022-08-03T01:58:02;5.82;;;1.90;;
73863;SDS011;62200;52.062;5.292;2022-08-03T02:00:29;5.70;;;2.20;;
73863;SDS011;62200;52.062;5.292;2022-08-03T02:02:56;6.78;;;1.90;;
73863;SDS011;62200;52.062;5.292;2022-08-03T02:05:22;6.07;;;2.05;;
73863;SDS011;62200;52.062;5.292;2022-08-03T02:07:51;5.25;;;2.03;;
73863;SDS011;62200;52.062;5.292;2022-08-03T02:10:18;10.20;;;2.00;;
73863;SDS011;62200;52.062;5.292;2022-08-03T02:12:45;6.22;;;2.00;;
73863;SDS011;62200;52.062;5.292;2022-08-03T02:15:11;7.18;;;2.15;;
73863;SDS011;62200;52.062;5.292;2022-08-03T02:17:39;8.85;;;2.60;;
73863;SDS011;62200;52.062;5.292;2022-08-03T02:20:07;6.35;;;2.25;;
73863;SDS011;62200;52.062;5.292;2022-08-03T02:22:37;7.15;;;2.47;;
73863;SDS011;62200;52.062;5.292;2022-08-03T02:25:05;10.57;;;2.42;;
73863;SDS011;62200;52.062;5.292;2022-08-03T02:27:35;5.47;;;2.00;;
73863;SDS011;62200;52.062;5.292;2022-08-03T02:30:05;7.93;;;2.95;;
73863;SDS011;62200;52.062;5.292;2022-08-03T02:32:36;7.65;;;2.10;;
73863;SDS011;62200;52.062;5.292;2022-08-03T02:35:05;8.73;;;2.25;;
73863;SDS011;62200;52.062;5.292;2022-08-03T02:37:35;4.60;;;1.92;;
73863;SDS011;62200;52.062;5.292;2022-08-03T02:40:17;4.78;;;2.22;;
73863;SDS011;62200;52.062;5.292;2022-08-03T02:42:44;6.28;;;2.40;;
73863;SDS011;62200;52.062;5.292;2022-08-03T02:45:12;5.50;;;1.92;;
73863;SDS011;62200;52.062;5.292;2022-08-03T02:47:42;5.18;;;2.05;;
73863;SDS011;62200;52.062;5.292;2022-08-03T02:50:10;8.57;;;2.00;;
73863;SDS011;62200;52.062;5.292;2022-08-03T02:52:37;8.27;;;2.17;;
73863;SDS011;62200;52.062;5.292;2022-08-03T02:55:03;9.35;;;2.28;;
73863;SDS011;62200;52.062;5.292;2022-08-03T02:57:31;5.03;;;1.80;;
73863;SDS011;62200;52.062;5.292;2022-08-03T02:59:59;8.02;;;2.00;;
73863;SDS011;62200;52.062;5.292;2022-08-03T03:02:26;9.93;;;2.63;;
73863;SDS011;62200;52.062;5.292;2022-08-03T03:04:53;9.35;;;2.38;;
73863;SDS011;62200;52.062;5.292;2022-08-03T03:07:20;8.80;;;2.38;;
73863;SDS011;62200;52.062;5.292;2022-08-03T03:09:46;7.97;;;2.40;;
73863;SDS011;62200;52.062;5.292;2022-08-03T03:12:12;6.05;;;2.03;;
73863;SDS011;62200;52.062;5.292;2022-08-03T03:14:39;8.45;;;2.53;;
73863;SDS011;62200;52.062;5.292;2022-08-03T03:17:05;6.97;;;2.45;;
73863;SDS011;62200;52.062;5.292;2022-08-03T03:19:32;7.18;;;2.90;;
73863;SDS011;62200;52.062;5.292;2022-08-03T03:21:59;9.27;;;2.72;;
73863;SDS011;62200;52.062;5.292;2022-08-03T03:24:29;6.90;;;3.08;;
73863;SDS011;62200;52.062;5.292;2022-08-03T03:26:54;6.47;;;2.40;;
73863;SDS011;62200;52.062;5.292;2022-08-03T03:29:20;8.98;;;3.35;;
73863;SDS011;62200;52.062;5.292;2022-08-03T03:31:47;8.68;;;2.70;;
73863;SDS011;62200;52.062;5.292;2022-08-03T03:34:13;7.35;;;2.90;;
73863;SDS011;62200;52.062;5.292;2022-08-03T03:36:39;9.52;;;2.55;;
73863;SDS011;62200;52.062;5.292;2022-08-03T03:39:05;7.70;;;2.83;;
73863;SDS011;62200;52.062;5.292;2022-08-03T03:41:30;8.48;;;2.70;;
73863;SDS011;62200;52.062;5.292;2022-08-03T03:43:56;9.05;;;2.80;;
73863;SDS011;62200;52.062;5.292;2022-08-03T03:46:22;8.15;;;2.53;;
73863;SDS011;62200;52.062;5.292;2022-08-03T03:48:47;9.52;;;2.40;;
73863;SDS011;62200;52.062;5.292;2022-08-03T03:51:13;8.48;;;3.00;;
73863;SDS011;62200;52.062;5.292;2022-08-03T03:53:39;6.72;;;2.47;;
73863;SDS011;62200;52.062;5.292;2022-08-03T03:56:04;8.65;;;2.60;;
73863;SDS011;62200;52.062;5.292;2022-08-03T03:58:30;8.85;;;3.45;;
73863;SDS011;62200;52.062;5.292;2022-08-03T04:00:56;5.95;;;2.22;;
73863;SDS011;62200;52.062;5.292;2022-08-03T04:03:22;6.75;;;2.35;;
73863;SDS011;62200;52.062;5.292;2022-08-03T04:05:47;8.95;;;2.67;;
73863;SDS011;62200;52.062;5.292;2022-08-03T04:08:33;6.18;;;2.10;;
73863;SDS011;62200;52.062;5.292;2022-08-03T04:11:18;6.25;;;2.38;;
73863;SDS011;62200;52.062;5.292;2022-08-03T04:13:56;10.80;;;2.38;;
73863;SDS011;62200;52.062;5.292;2022-08-03T04:16:28;9.15;;;2.67;;
73863;SDS011;62200;52.062;5.292;2022-08-03T04:18:58;22.05;;;3.20;;
73863;SDS011;62200;52.062;5.292;2022-08-03T04:21:27;8.32;;;3.05;;
73863;SDS011;62200;52.062;5.292;2022-08-03T04:23:55;6.60;;;2.63;;
73863;SDS011;62200;52.062;5.292;2022-08-03T04:26:24;6.68;;;2.63;;
73863;SDS011;62200;52.062;5.292;2022-08-03T04:28:52;8.95;;;3.65;;
73863;SDS011;62200;52.062;5.292;2022-08-03T04:31:19;7.70;;;2.88;;
73863;SDS011;62200;52.062;5.292;2022-08-03T04:33:47;7.97;;;2.72;;
73863;SDS011;62200;52.062;5.292;2022-08-03T04:36:16;9.27;;;3.05;;
73863;SDS011;62200;52.062;5.292;2022-08-03T04:38:52;10.23;;;2.60;;
73863;SDS011;62200;52.062;5.292;2022-08-03T04:41:23;10.95;;;3.30;;
73863;SDS011;62200;52.062;5.292;2022-08-03T04:43:50;10.82;;;3.72;;
73863;SDS011;62200;52.062;5.292;2022-08-03T04:46:18;10.73;;;3.65;;
73863;SDS011;62200;52.062;5.292;2022-08-03T04:48:46;8.13;;;2.80;;
73863;SDS011;62200;52.062;5.292;2022-08-03T04:51:11;12.52;;;3.15;;
73863;SDS011;62200;52.062;5.292;2022-08-03T04:53:37;12.45;;;2.58;;
73863;SDS011;62200;52.062;5.292;2022-08-03T04:56:06;10.40;;;3.42;;
73863;SDS011;62200;52.062;5.292;2022-08-03T04:58:32;12.20;;;3.50;;
73863;SDS011;62200;52.062;5.292;2022-08-03T05:00:57;9.75;;;3.03;;
73863;SDS011;62200;52.062;5.292;2022-08-03T05:03:23;11.80;;;3.40;;
73863;SDS011;62200;52.062;5.292;2022-08-03T05:05:48;9.90;;;3.90;;
73863;SDS011;62200;52.062;5.292;2022-08-03T05:08:14;9.85;;;4.53;;
73863;SDS011;62200;52.062;5.292;2022-08-03T05:10:39;11.98;;;3.30;;
73863;SDS011;62200;52.062;5.292;2022-08-03T05:13:05;8.48;;;3.15;;
73863;SDS011;62200;52.062;5.292;2022-08-03T05:15:30;8.95;;;2.97;;
73863;SDS011;62200;52.062;5.292;2022-08-03T05:17:57;14.38;;;3.50;;
73863;SDS011;62200;52.062;5.292;2022-08-03T05:20:22;10.40;;;3.72;;
73863;SDS011;62200;52.062;5.292;2022-08-03T05:22:47;11.95;;;4.47;;
73863;SDS011;62200;52.062;5.292;2022-08-03T05:25:13;11.27;;;3.20;;
73863;SDS011;62200;52.062;5.292;2022-08-03T05:27:38;13.02;;;3.42;;
73863;SDS011;62200;52.062;5.292;2022-08-03T05:30:04;14.30;;;3.60;;
73863;SDS011;62200;52.062;5.292;2022-08-03T05:32:29;10.85;;;4.50;;
73863;SDS011;62200;52.062;5.292;2022-08-03T05:34:55;9.90;;;3.63;;
73863;SDS011;62200;52.062;5.292;2022-08-03T05:37:20;12.23;;;3.50;;
73863;SDS011;62200;52.062;5.292;2022-08-03T05:39:46;11.88;;;3.58;;
73863;SDS011;62200;52.062;5.292;2022-08-03T05:42:12;12.25;;;3.20;;
73863;SDS011;62200;52.062;5.292;2022-08-03T05:44:39;10.27;;;2.97;;
73863;SDS011;62200;52.062;5.292;2022-08-03T05:47:06;10.35;;;3.92;;
73863;SDS011;62200;52.062;5.292;2022-08-03T05:49:31;13.50;;;3.78;;
73863;SDS011;62200;52.062;5.292;2022-08-03T05:51:57;10.38;;;3.45;;
73863;SDS011;62200;52.062;5.292;2022-08-03T05:54:22;10.60;;;3.25;;
73863;SDS011;62200;52.062;5.292;2022-08-03T05:56:51;9.27;;;3.33;;
73863;SDS011;62200;52.062;5.292;2022-08-03T05:59:16;11.10;;;3.28;;
73863;SDS011;62200;52.062;5.292;2022-08-03T06:01:42;11.20;;;3.50;;
73863;SDS011;62200;52.062;5.292;2022-08-03T06:04:07;11.85;;;3.15;;
73863;SDS011;62200;52.062;5.292;2022-08-03T06:06:32;11.93;;;4.07;;
73863;SDS011;62200;52.062;5.292;2022-08-03T06:08:58;12.32;;;3.63;;
73863;SDS011;62200;52.062;5.292;2022-08-03T06:11:23;10.57;;;3.33;;
73863;SDS011;62200;52.062;5.292;2022-08-03T06:13:49;9.40;;;4.13;;
73863;SDS011;62200;52.062;5.292;2022-08-03T06:16:14;10.38;;;3.42;;
73863;SDS011;62200;52.062;5.292;2022-08-03T06:18:39;10.88;;;3.50;;
73863;SDS011;62200;52.062;5.292;2022-08-03T06:21:05;10.75;;;3.45;;
73863;SDS011;62200;52.062;5.292;2022-08-03T06:23:30;10.18;;;3.25;;
73863;SDS011;62200;52.062;5.292;2022-08-03T06:25:56;9.95;;;3.50;;
73863;SDS011;62200;52.062;5.292;2022-08-03T06:28:21;12.85;;;3.88;;
73863;SDS011;62200;52.062;5.292;2022-08-03T06:30:47;12.63;;;3.10;;
73863;SDS011;62200;52.062;5.292;2022-08-03T06:33:12;15.38;;;3.17;;
73863;SDS011;62200;52.062;5.292;2022-08-03T06:35:37;11.45;;;2.65;;
73863;SDS011;62200;52.062;5.292;2022-08-03T06:38:03;10.10;;;3.25;;
73863;SDS011;62200;52.062;5.292;2022-08-03T06:40:28;15.75;;;3.50;;
73863;SDS011;62200;52.062;5.292;2022-08-03T06:42:58;11.55;;;3.03;;
73863;SDS011;62200;52.062;5.292;2022-08-03T06:45:25;14.77;;;3.10;;
73863;SDS011;62200;52.062;5.292;2022-08-03T06:48:02;10.15;;;2.95;;
73863;SDS011;62200;52.062;5.292;2022-08-03T06:50:29;8.52;;;2.67;;
73863;SDS011;62200;52.062;5.292;2022-08-03T06:52:55;13.25;;;3.35;;
73863;SDS011;62200;52.062;5.292;2022-08-03T06:55:21;10.60;;;3.35;;
73863;SDS011;62200;52.062;5.292;2022-08-03T06:57:46;10.75;;;2.58;;
73863;SDS011;62200;52.062;5.292;2022-08-03T07:00:11;8.07;;;2.55;;
73863;SDS011;62200;52.062;5.292;2022-08-03T07:02:37;12.88;;;2.70;;
73863;SDS011;62200;52.062;5.292;2022-08-03T07:05:03;9.93;;;2.92;;
73863;SDS011;62200;52.062;5.292;2022-08-03T07:07:29;9.27;;;2.50;;
73863;SDS011;62200;52.062;5.292;2022-08-03T07:09:55;10.68;;;2.40;;
73863;SDS011;62200;52.062;5.292;2022-08-03T07:12:20;10.40;;;2.42;;
73863;SDS011;62200;52.062;5.292;2022-08-03T07:14:46;10.00;;;2.60;;
73863;SDS011;62200;52.062;5.292;2022-08-03T07:17:11;14.30;;;3.25;;
73863;SDS011;62200;52.062;5.292;2022-08-03T07:19:36;10.23;;;3.05;;
73863;SDS011;62200;52.062;5.292;2022-08-03T07:22:02;10.07;;;2.70;;
73863;SDS011;62200;52.062;5.292;2022-08-03T07:24:27;9.75;;;2.78;;
73863;SDS011;62200;52.062;5.292;2022-08-03T07:26:53;12.18;;;3.20;;
73863;SDS011;62200;52.062;5.292;2022-08-03T07:29:18;13.95;;;2.97;;
73863;SDS011;62200;52.062;5.292;2022-08-03T07:31:44;12.27;;;3.22;;
73863;SDS011;62200;52.062;5.292;2022-08-03T07:34:10;11.90;;;3.20;;
73863;SDS011;62200;52.062;5.292;2022-08-03T07:36:35;9.30;;;2.60;;
73863;SDS011;62200;52.062;5.292;2022-08-03T07:39:00;11.02;;;2.58;;
73863;SDS011;62200;52.062;5.292;2022-08-03T07:41:26;10.45;;;2.83;;
73863;SDS011;62200;52.062;5.292;2022-08-03T07:43:51;9.40;;;2.45;;
73863;SDS011;62200;52.062;5.292;2022-08-03T07:46:17;12.13;;;2.88;;
73863;SDS011;62200;52.062;5.292;2022-08-03T07:48:42;9.75;;;2.70;;
73863;SDS011;62200;52.062;5.292;2022-08-03T07:51:08;11.13;;;2.85;;
73863;SDS011;62200;52.062;5.292;2022-08-03T07:53:34;13.82;;;3.13;;
73863;SDS011;62200;52.062;5.292;2022-08-03T07:55:59;8.80;;;2.78;;
73863;SDS011;62200;52.062;5.292;2022-08-03T07:58:25;8.70;;;2.17;;
73863;SDS011;62200;52.062;5.292;2022-08-03T08:00:50;10.27;;;2.28;;
73863;SDS011;62200;52.062;5.292;2022-08-03T08:03:18;11.13;;;2.83;;
73863;SDS011;62200;52.062;5.292;2022-08-03T08:05:43;12.35;;;2.53;;
73863;SDS011;62200;52.062;5.292;2022-08-03T08:08:09;10.70;;;2.88;;
73863;SDS011;62200;52.062;5.292;2022-08-03T08:10:35;8.77;;;2.78;;
73863;SDS011;62200;52.062;5.292;2022-08-03T08:13:02;11.57;;;2.75;;
73863;SDS011;62200;52.062;5.292;2022-08-03T08:15:28;11.20;;;2.63;;
73863;SDS011;62200;52.062;5.292;2022-08-03T08:17:55;14.18;;;3.00;;
73863;SDS011;62200;52.062;5.292;2022-08-03T08:20:24;15.35;;;2.63;;
73863;SDS011;62200;52.062;5.292;2022-08-03T08:22:50;11.43;;;2.75;;
73863;SDS011;62200;52.062;5.292;2022-08-03T08:25:16;11.38;;;2.63;;
73863;SDS011;62200;52.062;5.292;2022-08-03T08:27:43;11.60;;;2.30;;
73863;SDS011;62200;52.062;5.292;2022-08-03T08:30:09;11.40;;;2.28;;
73863;SDS011;62200;52.062;5.292;2022-08-03T08:32:36;11.85;;;2.47;;
73863;SDS011;62200;52.062;5.292;2022-08-03T08:35:02;10.82;;;3.00;;
73863;SDS011;62200;52.062;5.292;2022-08-03T08:37:28;10.85;;;2.33;;
73863;SDS011;62200;52.062;5.292;2022-08-03T08:39:54;13.38;;;2.30;;
73863;SDS011;62200;52.062;5.292;2022-08-03T08:42:20;15.73;;;3.70;;
73863;SDS011;62200;52.062;5.292;2022-08-03T08:44:46;10.85;;;2.63;;
73863;SDS011;62200;52.062;5.292;2022-08-03T08:47:13;18.15;;;3.35;;
73863;SDS011;62200;52.062;5.292;2022-08-03T08:49:38;11.27;;;3.30;;
73863;SDS011;62200;52.062;5.292;2022-08-03T08:52:06;9.40;;;2.65;;
73863;SDS011;62200;52.062;5.292;2022-08-03T08:54:32;10.55;;;1.98;;
73863;SDS011;62200;52.062;5.292;2022-08-03T08:57:01;11.20;;;2.40;;
73863;SDS011;62200;52.062;5.292;2022-08-03T08:59:30;11.77;;;2.30;;
73863;SDS011;62200;52.062;5.292;2022-08-03T09:01:59;10.20;;;2.70;;
73863;SDS011;62200;52.062;5.292;2022-08-03T09:04:24;11.52;;;2.33;;
73863;SDS011;62200;52.062;5.292;2022-08-03T09:06:52;8.48;;;2.50;;
73863;SDS011;62200;52.062;5.292;2022-08-03T09:09:17;11.35;;;2.38;;
73863;SDS011;62200;52.062;5.292;2022-08-03T09:11:43;11.35;;;2.35;;
73863;SDS011;62200;52.062;5.292;2022-08-03T09:14:09;15.52;;;2.83;;
73863;SDS011;62200;52.062;5.292;2022-08-03T09:16:35;11.95;;;2.03;;
73863;SDS011;62200;52.062;5.292;2022-08-03T09:19:13;11.73;;;2.33;;
73863;SDS011;62200;52.062;5.292;2022-08-03T09:21:40;9.30;;;2.42;;
73863;SDS011;62200;52.062;5.292;2022-08-03T09:24:05;12.57;;;2.63;;
73863;SDS011;62200;52.062;5.292;2022-08-03T09:26:32;10.32;;;2.40;;
73863;SDS011;62200;52.062;5.292;2022-08-03T09:31:33;8.75;;;2.50;;
73863;SDS011;62200;52.062;5.292;2022-08-03T09:34:05;15.88;;;2.58;;
73863;SDS011;62200;52.062;5.292;2022-08-03T09:36:32;13.38;;;2.55;;
73863;SDS011;62200;52.062;5.292;2022-08-03T09:39:06;12.48;;;2.55;;
73863;SDS011;62200;52.062;5.292;2022-08-03T09:41:38;11.27;;;2.05;;
73863;SDS011;62200;52.062;5.292;2022-08-03T09:44:04;12.20;;;2.53;;
73863;SDS011;62200;52.062;5.292;2022-08-03T09:46:30;14.45;;;3.10;;
73863;SDS011;62200;52.062;5.292;2022-08-03T09:49:10;10.88;;;2.67;;
73863;SDS011;62200;52.062;5.292;2022-08-03T09:51:36;11.52;;;2.35;;
73863;SDS011;62200;52.062;5.292;2022-08-03T09:54:01;11.52;;;2.95;;
73863;SDS011;62200;52.062;5.292;2022-08-03T09:59:27;10.38;;;2.28;;
73863;SDS011;62200;52.062;5.292;2022-08-03T10:01:55;9.65;;;2.13;;
73863;SDS011;62200;52.062;5.292;2022-08-03T10:04:22;9.27;;;2.50;;
73863;SDS011;62200;52.062;5.292;2022-08-03T10:07:07;12.77;;;2.70;;
73863;SDS011;62200;52.062;5.292;2022-08-03T10:09:34;11.27;;;1.85;;
73863;SDS011;62200;52.062;5.292;2022-08-03T10:12:20;13.52;;;2.20;;
73863;SDS011;62200;52.062;5.292;2022-08-03T10:14:46;10.52;;;2.08;;
73863;SDS011;62200;52.062;5.292;2022-08-03T10:17:12;14.23;;;2.55;;
73863;SDS011;62200;52.062;5.292;2022-08-03T10:19:38;9.13;;;1.98;;
73863;SDS011;62200;52.062;5.292;2022-08-03T10:27:28;12.18;;;2.38;;
73863;SDS011;62200;52.062;5.292;2022-08-03T10:29:59;10.10;;;2.15;;
73863;SDS011;62200;52.062;5.292;2022-08-03T10:32:27;10.45;;;2.20;;
73863;SDS011;62200;52.062;5.292;2022-08-03T10:35:08;11.80;;;1.80;;
73863;SDS011;62200;52.062;5.292;2022-08-03T10:37:39;14.45;;;2.45;;
73863;SDS011;62200;52.062;5.292;2022-08-03T10:40:07;13.93;;;2.15;;
73863;SDS011;62200;52.062;5.292;2022-08-03T10:42:36;15.20;;;2.10;;
73863;SDS011;62200;52.062;5.292;2022-08-03T10:45:04;11.32;;;2.08;;
73863;SDS011;62200;52.062;5.292;2022-08-03T10:47:50;14.07;;;2.25;;
73863;SDS011;62200;52.062;5.292;2022-08-03T10:50:16;8.75;;;1.90;;
73863;SDS011;62200;52.062;5.292;2022-08-03T10:52:56;12.00;;;1.63;;
73863;SDS011;62200;52.062;5.292;2022-08-03T11:01:08;9.95;;;2.10;;
73863;SDS011;62200;52.062;5.292;2022-08-03T11:06:18;8.93;;;1.75;;
73863;SDS011;62200;52.062;5.292;2022-08-03T11:08:45;8.35;;;1.83;;
73863;SDS011;62200;52.062;5.292;2022-08-03T11:13:57;11.77;;;2.40;;
73863;SDS011;62200;52.062;5.292;2022-08-03T11:16:29;12.65;;;2.65;;
73863;SDS011;62200;52.062;5.292;2022-08-03T11:19:10;10.48;;;1.98;;
73863;SDS011;62200;52.062;5.292;2022-08-03T11:27:33;10.32;;;1.60;;
73863;SDS011;62200;52.062;5.292;2022-08-03T11:37:33;8.52;;;2.20;;
73863;SDS011;62200;52.062;5.292;2022-08-03T11:39:59;10.90;;;1.88;;
73863;SDS011;62200;52.062;5.292;2022-08-03T11:47:21;8.23;;;2.28;;
73863;SDS011;62200;52.062;5.292;2022-08-03T11:49:50;7.53;;;2.25;;
73863;SDS011;62200;52.062;5.292;2022-08-03T11:52:18;11.02;;;2.03;;
73863;SDS011;62200;52.062;5.292;2022-08-03T11:54:43;7.85;;;1.90;;
73863;SDS011;62200;52.062;5.292;2022-08-03T11:57:10;12.43;;;2.15;;
73863;SDS011;62200;52.062;5.292;2022-08-03T11:59:36;8.93;;;1.60;;
73863;SDS011;62200;52.062;5.292;2022-08-03T12:02:09;8.32;;;2.20;;
73863;SDS011;62200;52.062;5.292;2022-08-03T12:04:51;7.55;;;1.83;;
73863;SDS011;62200;52.062;5.292;2022-08-03T12:07:22;7.97;;;1.98;;
73863;SDS011;62200;52.062;5.292;2022-08-03T12:12:34;8.02;;;1.65;;
73863;SDS011;62200;52.062;5.292;2022-08-03T12:14:59;9.95;;;1.98;;
73863;SDS011;62200;52.062;5.292;2022-08-03T12:20:23;7.13;;;1.58;;
73863;SDS011;62200;52.062;5.292;2022-08-03T12:22:51;8.80;;;1.70;;
73863;SDS011;62200;52.062;5.292;2022-08-03T12:25:20;8.30;;;1.60;;
73863;SDS011;62200;52.062;5.292;2022-08-03T12:27:50;6.85;;;1.73;;
73863;SDS011;62200;52.062;5.292;2022-08-03T12:30:17;5.53;;;1.38;;
73863;SDS011;62200;52.062;5.292;2022-08-03T12:32:43;11.57;;;1.63;;
73863;SDS011;62200;52.062;5.292;2022-08-03T12:35:09;5.45;;;1.67;;
73863;SDS011;62200;52.062;5.292;2022-08-03T12:37:46;8.32;;;1.75;;
73863;SDS011;62200;52.062;5.292;2022-08-03T12:40:12;10.90;;;1.80;;
73863;SDS011;62200;52.062;5.292;2022-08-03T12:42:40;7.70;;;1.75;;
73863;SDS011;62200;52.062;5.292;2022-08-03T12:45:25;6.38;;;2.00;;
73863;SDS011;62200;52.062;5.292;2022-08-03T12:47:59;7.32;;;2.40;;
73863;SDS011;62200;52.062;5.292;2022-08-03T12:50:33;5.43;;;1.80;;
73863;SDS011;62200;52.062;5.292;2022-08-03T12:53:00;7.72;;;1.73;;
73863;SDS011;62200;52.062;5.292;2022-08-03T12:55:28;5.95;;;1.70;;
73863;SDS011;62200;52.062;5.292;2022-08-03T12:58:00;6.75;;;1.80;;
73863;SDS011;62200;52.062;5.292;2022-08-03T13:00:29;4.60;;;1.73;;
73863;SDS011;62200;52.062;5.292;2022-08-03T13:02:59;4.18;;;1.60;;
73863;SDS011;62200;52.062;5.292;2022-08-03T13:05:26;7.50;;;2.40;;
73863;SDS011;62200;52.062;5.292;2022-08-03T13:07:52;7.13;;;1.95;;
73863;SDS011;62200;52.062;5.292;2022-08-03T13:10:30;8.02;;;2.05;;
73863;SDS011;62200;52.062;5.292;2022-08-03T13:12:57;6.93;;;1.75;;
73863;SDS011;62200;52.062;5.292;2022-08-03T13:15:24;7.50;;;2.28;;
73863;SDS011;62200;52.062;5.292;2022-08-03T13:17:52;10.68;;;2.88;;
73863;SDS011;62200;52.062;5.292;2022-08-03T13:20:19;6.43;;;2.42;;
73863;SDS011;62200;52.062;5.292;2022-08-03T13:22:48;4.75;;;2.05;;
73863;SDS011;62200;52.062;5.292;2022-08-03T13:25:13;7.35;;;2.20;;
73863;SDS011;62200;52.062;5.292;2022-08-03T13:27:39;7.38;;;2.42;;
73863;SDS011;62200;52.062;5.292;2022-08-03T13:30:05;10.57;;;2.17;;
73863;SDS011;62200;52.062;5.292;2022-08-03T13:32:31;4.80;;;2.40;;
73863;SDS011;62200;52.062;5.292;2022-08-03T13:34:57;6.40;;;2.20;;
73863;SDS011;62200;52.062;5.292;2022-08-03T13:37:23;6.00;;;2.28;;
73863;SDS011;62200;52.062;5.292;2022-08-03T13:39:49;7.57;;;2.35;;
73863;SDS011;62200;52.062;5.292;2022-08-03T13:42:15;6.47;;;2.30;;
73863;SDS011;62200;52.062;5.292;2022-08-03T13:44:40;5.13;;;2.10;;
73863;SDS011;62200;52.062;5.292;2022-08-03T13:47:05;7.00;;;2.70;;
73863;SDS011;62200;52.062;5.292;2022-08-03T13:49:31;5.65;;;2.75;;
73863;SDS011;62200;52.062;5.292;2022-08-03T13:51:56;7.53;;;2.70;;
73863;SDS011;62200;52.062;5.292;2022-08-03T13:54:22;7.32;;;2.42;;
73863;SDS011;62200;52.062;5.292;2022-08-03T13:56:47;4.78;;;2.33;;
73863;SDS011;62200;52.062;5.292;2022-08-03T13:59:17;4.82;;;2.45;;
73863;SDS011;62200;52.062;5.292;2022-08-03T14:01:44;7.60;;;2.90;;
73863;SDS011;62200;52.062;5.292;2022-08-03T14:04:10;5.68;;;2.40;;
73863;SDS011;62200;52.062;5.292;2022-08-03T14:06:35;8.60;;;2.22;;
73863;SDS011;62200;52.062;5.292;2022-08-03T14:09:00;7.60;;;2.40;;
73863;SDS011;62200;52.062;5.292;2022-08-03T14:11:26;6.57;;;2.65;;
73863;SDS011;62200;52.062;5.292;2022-08-03T14:13:52;4.65;;;1.67;;
73863;SDS011;62200;52.062;5.292;2022-08-03T14:16:17;7.43;;;2.00;;
73863;SDS011;62200;52.062;5.292;2022-08-03T14:18:43;8.73;;;1.85;;
73863;SDS011;62200;52.062;5.292;2022-08-03T14:21:08;5.35;;;1.80;;
73863;SDS011;62200;52.062;5.292;2022-08-03T14:23:34;4.80;;;1.88;;
73863;SDS011;62200;52.062;5.292;2022-08-03T14:26:01;7.95;;;1.90;;
73863;SDS011;62200;52.062;5.292;2022-08-03T14:28:27;5.97;;;1.73;;
73863;SDS011;62200;52.062;5.292;2022-08-03T14:30:53;7.97;;;2.15;;
73863;SDS011;62200;52.062;5.292;2022-08-03T14:33:22;6.00;;;2.20;;
73863;SDS011;62200;52.062;5.292;2022-08-03T14:35:48;5.45;;;1.65;;
73863;SDS011;62200;52.062;5.292;2022-08-03T14:38:15;3.88;;;1.48;;
73863;SDS011;62200;52.062;5.292;2022-08-03T14:40:40;5.78;;;1.88;;
73863;SDS011;62200;52.062;5.292;2022-08-03T14:43:06;7.43;;;1.80;;
73863;SDS011;62200;52.062;5.292;2022-08-03T14:45:31;4.38;;;1.48;;
73863;SDS011;62200;52.062;5.292;2022-08-03T14:47:58;6.70;;;2.22;;
73863;SDS011;62200;52.062;5.292;2022-08-03T14:50:24;4.82;;;1.38;;
73863;SDS011;62200;52.062;5.292;2022-08-03T14:52:50;8.57;;;2.00;;
73863;SDS011;62200;52.062;5.292;2022-08-03T14:55:16;4.03;;;1.42;;
73863;SDS011;62200;52.062;5.292;2022-08-03T14:57:41;6.13;;;1.73;;
73863;SDS011;62200;52.062;5.292;2022-08-03T15:00:07;3.42;;;1.20;;
73863;SDS011;62200;52.062;5.292;2022-08-03T15:02:33;5.57;;;1.50;;
73863;SDS011;62200;52.062;5.292;2022-08-03T15:04:58;9.02;;;1.67;;
73863;SDS011;62200;52.062;5.292;2022-08-03T15:07:24;5.30;;;1.23;;
73863;SDS011;62200;52.062;5.292;2022-08-03T15:09:50;6.45;;;1.60;;
73863;SDS011;62200;52.062;5.292;2022-08-03T15:12:15;3.13;;;1.40;;
73863;SDS011;62200;52.062;5.292;2022-08-03T15:14:40;6.03;;;1.50;;
73863;SDS011;62200;52.062;5.292;2022-08-03T15:17:06;5.57;;;1.60;;
73863;SDS011;62200;52.062;5.292;2022-08-03T15:19:31;3.75;;;1.05;;
73863;SDS011;62200;52.062;5.292;2022-08-03T15:21:57;6.18;;;1.73;;
73863;SDS011;62200;52.062;5.292;2022-08-03T15:24:22;6.30;;;1.45;;
73863;SDS011;62200;52.062;5.292;2022-08-03T15:26:48;5.07;;;1.30;;
73863;SDS011;62200;52.062;5.292;2022-08-03T15:29:15;5.72;;;1.63;;
73863;SDS011;62200;52.062;5.292;2022-08-03T15:31:40;5.13;;;1.30;;
73863;SDS011;62200;52.062;5.292;2022-08-03T15:34:05;5.32;;;1.42;;
73863;SDS011;62200;52.062;5.292;2022-08-03T15:36:31;4.63;;;1.38;;
73863;SDS011;62200;52.062;5.292;2022-08-03T15:38:57;3.65;;;1.17;;
73863;SDS011;62200;52.062;5.292;2022-08-03T15:41:22;6.45;;;1.63;;
73863;SDS011;62200;52.062;5.292;2022-08-03T15:43:47;4.25;;;1.80;;
73863;SDS011;62200;52.062;5.292;2022-08-03T15:46:14;6.15;;;1.30;;
73863;SDS011;62200;52.062;5.292;2022-08-03T15:48:40;7.22;;;2.03;;